createdAt,value
2022-10-23T00:00:51.882Z,0.00
2022-10-23T00:01:51.808Z,0.00
2022-10-23T00:02:51.887Z,0.00
2022-10-23T00:03:51.816Z,0.00
2022-10-23T00:04:51.775Z,0.00
2022-10-23T00:05:51.765Z,0.00
2022-10-23T00:06:51.765Z,0.00
2022-10-23T00:07:51.755Z,0.00
2022-10-23T00:08:51.735Z,0.00
2022-10-23T00:09:51.754Z,0.00
2022-10-23T00:10:51.718Z,0.00
2022-10-23T00:11:51.717Z,0.00
2022-10-23T00:12:51.686Z,0.00
2022-10-23T00:13:51.697Z,0.00
2022-10-23T00:14:51.676Z,0.00
2022-10-23T00:16:51.668Z,0.00
2022-10-23T00:17:51.646Z,0.00
2022-10-23T00:18:51.617Z,0.00
2022-10-23T00:19:51.627Z,0.00
2022-10-23T00:20:51.598Z,0.00
2022-10-23T00:21:51.607Z,0.00
2022-10-23T00:22:51.597Z,0.00
2022-10-23T00:23:51.678Z,0.00
2022-10-23T00:24:51.578Z,0.00
2022-10-23T00:25:51.548Z,0.00
2022-10-23T00:26:51.551Z,0.00
2022-10-23T00:27:51.539Z,0.00
2022-10-23T00:28:51.537Z,0.00
2022-10-23T00:29:51.534Z,0.00
2022-10-23T00:30:51.509Z,0.00
2022-10-23T00:31:51.507Z,0.00
2022-10-23T00:32:51.495Z,0.00
2022-10-23T00:33:51.487Z,0.00
2022-10-23T00:34:51.460Z,0.00
2022-10-23T00:35:51.451Z,0.00
2022-10-23T00:36:51.449Z,0.00
2022-10-23T00:37:51.442Z,0.00
2022-10-23T00:38:51.418Z,0.00
2022-10-23T00:39:51.401Z,0.00
2022-10-23T00:40:51.389Z,0.00
2022-10-23T00:41:51.420Z,0.00
2022-10-23T00:42:51.469Z,0.00
2022-10-23T00:43:51.400Z,0.00
2022-10-23T00:44:51.356Z,0.00
2022-10-23T00:45:51.334Z,0.00
2022-10-23T00:46:51.332Z,0.00
2022-10-23T00:47:51.333Z,0.00
2022-10-23T00:48:51.323Z,0.00
2022-10-23T00:49:51.294Z,0.00
2022-10-23T00:50:51.284Z,0.00
2022-10-23T00:51:51.304Z,0.00
2022-10-23T00:52:51.271Z,0.00
2022-10-23T00:54:01.078Z,0.00
2022-10-23T00:54:52.233Z,0.00
2022-10-23T00:55:51.244Z,0.00
2022-10-23T00:56:51.253Z,0.00
2022-10-23T00:57:51.215Z,0.00
2022-10-23T00:58:51.233Z,0.00
2022-10-23T00:59:51.202Z,0.00
2022-10-23T01:00:51.176Z,0.00
2022-10-23T01:01:51.276Z,0.00
2022-10-23T01:02:51.175Z,0.00
2022-10-23T01:03:51.164Z,0.00
2022-10-23T01:04:51.147Z,0.00
2022-10-23T01:05:51.127Z,0.00
2022-10-23T01:06:51.115Z,0.00
2022-10-23T01:07:51.136Z,0.00
2022-10-23T01:08:51.086Z,0.00
2022-10-23T01:09:51.096Z,0.00
2022-10-23T01:10:51.086Z,0.00
2022-10-23T01:11:51.083Z,0.00
2022-10-23T01:12:51.046Z,0.00
2022-10-23T01:13:51.071Z,0.00
2022-10-23T01:14:51.026Z,0.00
2022-10-23T01:15:51.038Z,0.00
2022-10-23T01:16:51.017Z,0.00
2022-10-23T01:17:51.311Z,0.00
2022-10-23T01:18:50.978Z,0.00
2022-10-23T01:19:50.988Z,0.00
2022-10-23T01:20:50.998Z,0.00
2022-10-23T01:21:50.968Z,0.00
2022-10-23T01:22:50.950Z,0.00
2022-10-23T01:23:50.966Z,0.00
2022-10-23T01:24:50.917Z,0.00
2022-10-23T01:25:50.939Z,0.00
2022-10-23T01:26:50.909Z,0.00
2022-10-23T01:27:50.890Z,0.00
2022-10-23T01:28:50.869Z,0.00
2022-10-23T01:29:50.892Z,0.00
2022-10-23T01:30:50.852Z,0.00
2022-10-23T01:31:50.884Z,0.00
2022-10-23T01:32:50.850Z,0.00
2022-10-23T01:33:50.839Z,0.00
2022-10-23T01:34:50.831Z,0.00
2022-10-23T01:35:50.819Z,0.00
2022-10-23T01:36:50.802Z,0.00
2022-10-23T01:37:50.805Z,0.00
2022-10-23T01:38:50.816Z,0.00
2022-10-23T01:39:50.780Z,0.00
2022-10-23T01:40:50.754Z,0.00
2022-10-23T01:41:50.764Z,0.00
2022-10-23T01:42:50.734Z,0.00
2022-10-23T01:43:50.724Z,0.00
2022-10-23T01:44:50.713Z,0.00
2022-10-23T01:45:50.715Z,0.00
2022-10-23T01:46:50.683Z,0.00
2022-10-23T01:47:50.700Z,0.00
2022-10-23T01:48:50.665Z,0.00
2022-10-23T01:49:50.668Z,0.00
2022-10-23T01:50:50.653Z,0.00
2022-10-23T01:51:50.636Z,0.00
2022-10-23T01:52:50.635Z,0.00
2022-10-23T01:53:50.614Z,0.00
2022-10-23T01:54:50.614Z,0.00
2022-10-23T01:55:50.595Z,0.00
2022-10-23T01:56:50.575Z,0.00
2022-10-23T01:57:50.566Z,0.00
2022-10-23T01:58:50.588Z,0.00
2022-10-23T01:59:50.565Z,0.00
2022-10-23T02:00:50.569Z,0.00
2022-10-23T02:01:50.702Z,0.00
2022-10-23T02:02:50.566Z,0.00
2022-10-23T02:03:50.534Z,0.00
2022-10-23T02:04:50.504Z,0.00
2022-10-23T02:05:50.507Z,0.00
2022-10-23T02:06:50.486Z,0.00
2022-10-23T02:07:50.476Z,0.00
2022-10-23T02:08:50.446Z,0.00
2022-10-23T02:09:50.465Z,0.00
2022-10-23T02:10:50.475Z,0.00
2022-10-23T02:11:50.427Z,0.00
2022-10-23T02:12:50.419Z,0.00
2022-10-23T02:13:50.397Z,0.00
2022-10-23T02:14:50.389Z,0.00
2022-10-23T02:15:50.397Z,0.00
2022-10-23T02:16:50.388Z,0.00
2022-10-23T02:17:50.359Z,0.00
2022-10-23T02:18:50.359Z,0.00
2022-10-23T02:19:50.338Z,0.00
2022-10-23T02:20:50.320Z,0.00
2022-10-23T02:21:50.348Z,0.00
2022-10-23T02:22:50.319Z,0.00
2022-10-23T02:23:52.496Z,0.00
2022-10-23T02:24:51.281Z,0.00
2022-10-23T02:25:50.304Z,0.00
2022-10-23T02:26:50.280Z,0.00
2022-10-23T02:27:50.251Z,0.00
2022-10-23T02:28:50.250Z,0.00
2022-10-23T02:29:50.241Z,0.00
2022-10-23T02:30:50.231Z,0.00
2022-10-23T02:31:50.213Z,0.00
2022-10-23T02:32:50.210Z,0.00
2022-10-23T02:33:50.201Z,0.00
2022-10-23T02:34:50.180Z,0.00
2022-10-23T02:35:50.191Z,0.00
2022-10-23T02:36:50.151Z,0.00
2022-10-23T02:37:50.142Z,0.00
2022-10-23T02:38:50.143Z,0.00
2022-10-23T02:39:50.133Z,0.00
2022-10-23T02:40:50.132Z,0.00
2022-10-23T02:41:50.102Z,0.00
2022-10-23T02:42:50.122Z,0.00
2022-10-23T02:43:50.103Z,0.00
2022-10-23T02:44:50.083Z,0.00
2022-10-23T02:45:50.066Z,0.00
2022-10-23T02:46:50.072Z,0.00
2022-10-23T02:47:50.035Z,0.00
2022-10-23T02:48:50.024Z,0.00
2022-10-23T02:49:50.042Z,0.00
2022-10-23T02:50:50.005Z,0.00
2022-10-23T02:51:50.014Z,0.00
2022-10-23T02:52:50.003Z,0.00
2022-10-23T02:53:50.026Z,0.00
2022-10-23T02:54:49.975Z,0.00
2022-10-23T02:55:49.956Z,0.00
2022-10-23T02:56:49.955Z,0.00
2022-10-23T02:57:49.945Z,0.00
2022-10-23T02:58:49.936Z,0.00
2022-10-23T02:59:49.916Z,0.00
2022-10-23T03:00:49.906Z,0.00
2022-10-23T03:01:49.967Z,0.00
2022-10-23T03:02:49.885Z,0.00
2022-10-23T03:03:49.877Z,0.00
2022-10-23T03:04:49.868Z,0.00
2022-10-23T03:05:49.848Z,0.00
2022-10-23T03:06:49.847Z,0.00
2022-10-23T03:07:49.857Z,0.00
2022-10-23T03:08:49.816Z,0.00
2022-10-23T03:09:49.817Z,0.00
2022-10-23T03:10:49.830Z,0.00
2022-10-23T03:11:49.782Z,0.00
2022-10-23T03:12:49.788Z,0.00
2022-10-23T03:13:49.778Z,0.00
2022-10-23T03:14:49.748Z,0.00
2022-10-23T03:15:49.768Z,0.00
2022-10-23T03:16:49.738Z,0.00
2022-10-23T03:17:49.721Z,0.00
2022-10-23T03:18:49.709Z,0.00
2022-10-23T03:19:49.700Z,0.00
2022-10-23T03:20:49.721Z,0.00
2022-10-23T03:21:49.669Z,0.00
2022-10-23T03:22:49.680Z,0.00
2022-10-23T03:23:49.659Z,0.00
2022-10-23T03:24:49.651Z,0.00
2022-10-23T03:25:49.650Z,0.00
2022-10-23T03:26:49.647Z,0.00
2022-10-23T03:27:49.625Z,0.00
2022-10-23T03:28:49.620Z,0.00
2022-10-23T03:29:49.601Z,0.00
2022-10-23T03:30:49.590Z,0.00
2022-10-23T03:31:49.581Z,0.00
2022-10-23T03:32:49.578Z,0.00
2022-10-23T03:33:49.571Z,0.00
2022-10-23T03:34:49.553Z,0.00
2022-10-23T03:35:49.550Z,0.00
2022-10-23T03:36:49.563Z,0.00
2022-10-23T03:37:49.530Z,0.00
2022-10-23T03:38:49.511Z,0.00
2022-10-23T03:39:49.482Z,0.00
2022-10-23T03:40:49.474Z,0.00
2022-10-23T03:41:49.462Z,0.00
2022-10-23T03:42:49.461Z,0.00
2022-10-23T03:43:49.432Z,0.00
2022-10-23T03:44:49.433Z,0.00
2022-10-23T03:45:49.434Z,0.00
2022-10-23T03:46:49.414Z,0.00
2022-10-23T03:47:49.415Z,0.00
2022-10-23T03:48:49.415Z,0.00
2022-10-23T03:49:49.374Z,0.00
2022-10-23T03:50:49.365Z,0.00
2022-10-23T03:51:49.375Z,0.00
2022-10-23T03:52:49.364Z,0.00
2022-10-23T03:53:49.334Z,0.00
2022-10-23T03:54:49.335Z,0.00
2022-10-23T03:55:49.336Z,0.00
2022-10-23T03:56:51.457Z,0.00
2022-10-23T03:57:49.306Z,0.00
2022-10-23T03:58:49.295Z,0.00
2022-10-23T03:59:49.284Z,0.00
2022-10-23T04:00:49.278Z,0.00
2022-10-23T04:01:49.356Z,0.00
2022-10-23T04:02:49.281Z,0.00
2022-10-23T04:03:49.236Z,0.00
2022-10-23T04:04:49.248Z,0.00
2022-10-23T04:05:52.181Z,0.00
2022-10-23T04:06:49.214Z,0.00
2022-10-23T04:07:49.197Z,0.00
2022-10-23T04:08:49.178Z,0.00
2022-10-23T04:09:49.188Z,0.00
2022-10-23T04:10:49.148Z,0.00
2022-10-23T04:11:49.148Z,0.00
2022-10-23T04:12:49.158Z,0.00
2022-10-23T04:13:49.118Z,0.00
2022-10-23T04:14:49.131Z,0.00
2022-10-23T04:15:49.108Z,0.00
2022-10-23T04:16:49.105Z,0.00
2022-10-23T04:17:49.111Z,0.00
2022-10-23T04:18:49.070Z,0.00
2022-10-23T04:19:49.051Z,0.00
2022-10-23T04:20:49.060Z,0.00
2022-10-23T04:21:49.050Z,0.00
2022-10-23T04:22:49.030Z,0.00
2022-10-23T04:23:49.010Z,0.00
2022-10-23T04:24:49.011Z,0.00
2022-10-23T04:25:49.015Z,0.00
2022-10-23T04:26:48.999Z,0.00
2022-10-23T04:27:48.991Z,0.00
2022-10-23T04:28:49.000Z,0.00
2022-10-23T04:29:48.961Z,0.00
2022-10-23T04:30:48.951Z,0.00
2022-10-23T04:31:48.952Z,0.00
2022-10-23T04:32:48.959Z,0.00
2022-10-23T04:33:48.923Z,0.00
2022-10-23T04:34:48.902Z,0.00
2022-10-23T04:35:48.892Z,0.00
2022-10-23T04:36:48.897Z,0.00
2022-10-23T04:37:48.894Z,0.00
2022-10-23T04:38:48.862Z,0.00
2022-10-23T04:39:48.850Z,0.00
2022-10-23T04:40:48.862Z,0.00
2022-10-23T04:41:48.823Z,0.00
2022-10-23T04:42:48.834Z,0.00
2022-10-23T04:43:48.814Z,0.00
2022-10-23T04:44:48.802Z,0.00
2022-10-23T04:45:48.794Z,0.00
2022-10-23T04:46:48.784Z,0.00
2022-10-23T04:47:48.764Z,0.00
2022-10-23T04:48:48.753Z,0.00
2022-10-23T04:49:48.765Z,0.00
2022-10-23T04:50:48.752Z,0.00
2022-10-23T04:51:48.717Z,0.00
2022-10-23T04:52:48.714Z,0.00
2022-10-23T04:53:48.706Z,0.00
2022-10-23T04:54:48.724Z,0.00
2022-10-23T04:55:48.694Z,0.00
2022-10-23T04:56:48.696Z,0.00
2022-10-23T04:57:48.665Z,0.00
2022-10-23T04:58:48.657Z,0.00
2022-10-23T04:59:48.649Z,0.00
2022-10-23T05:00:48.714Z,0.00
2022-10-23T05:01:48.654Z,0.00
2022-10-23T05:02:48.617Z,0.00
2022-10-23T05:03:48.597Z,0.00
2022-10-23T05:04:48.608Z,0.00
2022-10-23T05:05:48.569Z,0.00
2022-10-23T05:06:48.594Z,0.00
2022-10-23T05:07:48.578Z,0.00
2022-10-23T05:08:48.539Z,0.00
2022-10-23T05:09:48.531Z,0.00
2022-10-23T05:10:48.519Z,0.00
2022-10-23T05:11:48.554Z,0.00
2022-10-23T05:12:48.520Z,0.00
2022-10-23T05:13:48.499Z,0.00
2022-10-23T05:14:48.498Z,0.00
2022-10-23T05:15:48.521Z,0.00
2022-10-23T05:16:48.469Z,0.00
2022-10-23T05:17:48.457Z,0.00
2022-10-23T05:18:48.450Z,0.00
2022-10-23T05:19:48.420Z,0.00
2022-10-23T05:20:48.410Z,0.00
2022-10-23T05:21:48.431Z,0.00
2022-10-23T05:22:48.550Z,0.00
2022-10-23T05:23:48.428Z,0.00
2022-10-23T05:24:50.562Z,0.00
2022-10-23T05:25:48.361Z,0.00
2022-10-23T05:26:48.383Z,0.00
2022-10-23T05:27:48.355Z,0.00
2022-10-23T05:28:48.342Z,0.00
2022-10-23T05:29:48.332Z,0.00
2022-10-23T05:30:48.302Z,0.00
2022-10-23T05:31:48.374Z,4.00
2022-10-23T05:32:48.305Z,4.00
2022-10-23T05:33:48.282Z,0.00
2022-10-23T05:34:48.273Z,4.00
2022-10-23T05:35:48.273Z,4.00
2022-10-23T05:36:48.252Z,4.00
2022-10-23T05:37:48.244Z,4.00
2022-10-23T05:38:48.223Z,4.00
2022-10-23T05:39:48.229Z,4.00
2022-10-23T05:40:48.254Z,8.00
2022-10-23T05:41:48.213Z,12.00
2022-10-23T05:42:48.597Z,12.00
2022-10-23T05:43:48.173Z,16.00
2022-10-23T05:44:48.201Z,16.00
2022-10-23T05:45:48.186Z,20.00
2022-10-23T05:46:48.138Z,24.00
2022-10-23T05:47:48.136Z,28.00
2022-10-23T05:48:48.201Z,32.00
2022-10-23T05:49:48.143Z,36.00
2022-10-23T05:50:48.129Z,36.00
2022-10-23T05:51:48.086Z,44.00
2022-10-23T05:52:48.086Z,44.00
2022-10-23T05:53:48.066Z,52.00
2022-10-23T05:54:48.046Z,52.00
2022-10-23T05:55:48.068Z,60.00
2022-10-23T05:56:48.047Z,64.00
2022-10-23T05:57:48.028Z,68.00
2022-10-23T05:58:48.027Z,76.00
2022-10-23T05:59:48.028Z,84.00
2022-10-23T06:00:48.018Z,88.00
2022-10-23T06:01:48.151Z,92.00
2022-10-23T06:02:47.986Z,100.00
2022-10-23T06:03:47.958Z,112.00
2022-10-23T06:04:47.938Z,120.00
2022-10-23T06:05:47.949Z,128.00
2022-10-23T06:06:47.918Z,144.00
2022-10-23T06:07:47.918Z,156.00
2022-10-23T06:08:47.961Z,168.00
2022-10-23T06:09:47.917Z,180.00
2022-10-23T06:10:47.900Z,184.00
2022-10-23T06:11:47.896Z,192.00
2022-10-23T06:12:47.861Z,204.00
2022-10-23T06:13:47.881Z,216.00
2022-10-23T06:14:47.852Z,224.00
2022-10-23T06:15:47.850Z,236.00
2022-10-23T06:16:47.828Z,252.00
2022-10-23T06:17:47.821Z,272.00
2022-10-23T06:18:47.833Z,304.00
2022-10-23T06:19:47.794Z,340.00
2022-10-23T06:20:47.809Z,380.00
2022-10-23T06:21:47.781Z,400.00
2022-10-23T06:22:47.752Z,408.00
2022-10-23T06:23:47.742Z,416.00
2022-10-23T06:24:47.742Z,424.00
2022-10-23T06:25:47.732Z,432.00
2022-10-23T06:26:47.712Z,452.00
2022-10-23T06:27:47.703Z,480.00
2022-10-23T06:28:47.702Z,512.00
2022-10-23T06:29:47.684Z,552.00
2022-10-23T06:30:47.683Z,588.00
2022-10-23T06:31:47.671Z,612.00
2022-10-23T06:32:47.663Z,632.00
2022-10-23T06:33:47.657Z,644.00
2022-10-23T06:34:47.634Z,652.00
2022-10-23T06:35:47.620Z,660.00
2022-10-23T06:36:47.653Z,676.00
2022-10-23T06:37:47.593Z,692.00
2022-10-23T06:38:47.641Z,708.00
2022-10-23T06:39:47.586Z,712.00
2022-10-23T06:40:47.565Z,720.00
2022-10-23T06:41:47.545Z,748.00
2022-10-23T06:42:47.555Z,776.00
2022-10-23T06:43:47.545Z,792.00
2022-10-23T06:44:47.525Z,808.00
2022-10-23T06:45:47.526Z,828.00
2022-10-23T06:46:47.495Z,844.00
2022-10-23T06:47:47.496Z,864.00
2022-10-23T06:48:47.494Z,884.00
2022-10-23T06:49:47.486Z,900.00
2022-10-23T06:50:47.467Z,924.00
2022-10-23T06:51:47.466Z,948.00
2022-10-23T06:52:47.953Z,984.00
2022-10-23T06:53:47.451Z,1028.00
2022-10-23T06:54:47.458Z,1080.00
2022-10-23T06:55:50.078Z,1128.00
2022-10-23T06:56:48.399Z,1172.00
2022-10-23T06:57:47.538Z,1204.00
2022-10-23T06:58:47.380Z,1244.00
2022-10-23T06:59:47.358Z,1300.00
2022-10-23T07:00:47.386Z,1344.00
2022-10-23T07:01:47.491Z,1404.00
2022-10-23T07:02:47.319Z,1472.00
2022-10-23T07:03:47.338Z,1512.00
2022-10-23T07:04:47.319Z,1556.00
2022-10-23T07:05:47.298Z,1596.00
2022-10-23T07:06:47.291Z,1624.00
2022-10-23T07:07:47.302Z,1624.00
2022-10-23T07:08:47.269Z,1620.00
2022-10-23T07:09:47.260Z,1616.00
2022-10-23T07:10:47.240Z,1620.00
2022-10-23T07:11:47.240Z,1624.00
2022-10-23T07:12:47.242Z,1640.00
2022-10-23T07:13:47.219Z,1644.00
2022-10-23T07:14:47.248Z,1616.00
2022-10-23T07:15:47.220Z,1624.00
2022-10-23T07:16:47.173Z,1656.00
2022-10-23T07:17:47.169Z,1704.00
2022-10-23T07:18:47.171Z,1748.00
2022-10-23T07:19:47.187Z,1792.00
2022-10-23T07:20:47.142Z,1832.00
2022-10-23T07:21:47.131Z,1872.00
2022-10-23T07:22:47.112Z,1900.00
2022-10-23T07:23:47.102Z,1928.00
2022-10-23T07:24:47.102Z,1944.00
2022-10-23T07:25:47.084Z,1960.00
2022-10-23T07:26:47.117Z,1972.00
2022-10-23T07:27:47.063Z,1992.00
2022-10-23T07:28:47.044Z,2032.00
2022-10-23T07:29:47.043Z,2072.00
2022-10-23T07:30:47.044Z,2104.00
2022-10-23T07:31:47.044Z,2128.00
2022-10-23T07:32:47.004Z,2144.00
2022-10-23T07:33:47.044Z,2156.00
2022-10-23T07:34:46.991Z,2176.00
2022-10-23T07:35:46.974Z,2200.00
2022-10-23T07:36:46.963Z,2228.00
2022-10-23T07:37:46.975Z,2256.00
2022-10-23T07:38:46.946Z,2288.00
2022-10-23T07:39:46.953Z,2308.00
2022-10-23T07:40:46.933Z,2312.00
2022-10-23T07:41:46.917Z,2304.00
2022-10-23T07:42:46.917Z,2308.00
2022-10-23T07:43:46.903Z,2300.00
2022-10-23T07:44:46.886Z,2276.00
2022-10-23T07:45:46.877Z,2236.00
2022-10-23T07:46:46.866Z,2208.00
2022-10-23T07:47:46.848Z,2188.00
2022-10-23T07:48:46.866Z,2152.00
2022-10-23T07:49:46.847Z,2144.00
2022-10-23T07:50:46.826Z,2168.00
2022-10-23T07:51:50.558Z,2160.00
2022-10-23T07:52:47.202Z,2140.00
2022-10-23T07:53:46.821Z,2140.00
2022-10-23T07:54:46.768Z,2128.00
2022-10-23T07:55:46.780Z,2092.00
2022-10-23T07:56:46.769Z,2076.00
2022-10-23T07:57:46.739Z,2076.00
2022-10-23T07:58:46.720Z,2072.00
2022-10-23T07:59:46.750Z,2060.00
2022-10-23T08:00:46.721Z,2048.00
2022-10-23T08:01:46.818Z,2020.00
2022-10-23T08:02:46.681Z,2032.00
2022-10-23T08:03:46.691Z,2056.00
2022-10-23T08:04:46.701Z,2072.00
2022-10-23T08:05:46.658Z,2064.00
2022-10-23T08:06:46.652Z,2056.00
2022-10-23T08:07:46.632Z,2084.00
2022-10-23T08:08:46.625Z,2124.00
2022-10-23T08:09:46.632Z,2128.00
2022-10-23T08:10:46.604Z,2132.00
2022-10-23T08:11:46.591Z,2120.00
2022-10-23T08:12:46.592Z,2168.00
2022-10-23T08:13:46.573Z,2200.00
2022-10-23T08:14:46.559Z,2268.00
2022-10-23T08:15:46.545Z,2304.00
2022-10-23T08:16:46.534Z,2336.00
2022-10-23T08:17:46.545Z,2380.00
2022-10-23T08:18:46.547Z,2388.00
2022-10-23T08:19:46.505Z,2408.00
2022-10-23T08:20:46.515Z,2492.00
2022-10-23T08:21:46.496Z,2560.00
2022-10-23T08:22:46.474Z,2628.00
2022-10-23T08:23:46.522Z,2732.00
2022-10-23T08:24:46.454Z,2772.00
2022-10-23T08:25:46.466Z,2772.00
2022-10-23T08:26:46.424Z,2756.00
2022-10-23T08:27:46.425Z,2788.00
2022-10-23T08:28:46.425Z,2788.00
2022-10-23T08:29:46.425Z,2752.00
2022-10-23T08:30:46.397Z,2696.00
2022-10-23T08:31:46.376Z,2604.00
2022-10-23T08:32:46.366Z,2548.00
2022-10-23T08:33:46.429Z,2528.00
2022-10-23T08:34:46.366Z,2464.00
2022-10-23T08:35:46.358Z,2384.00
2022-10-23T08:36:46.334Z,2272.00
2022-10-23T08:37:47.328Z,2196.00
2022-10-23T08:38:46.297Z,2144.00
2022-10-23T08:39:48.076Z,2108.00
2022-10-23T08:40:46.297Z,2108.00
2022-10-23T08:41:46.268Z,2124.00
2022-10-23T08:42:46.297Z,2156.00
2022-10-23T08:43:46.269Z,2144.00
2022-10-23T08:44:46.229Z,2140.00
2022-10-23T08:45:46.228Z,2164.00
2022-10-23T08:46:46.284Z,2188.00
2022-10-23T08:47:46.233Z,2220.00
2022-10-23T08:48:46.197Z,2176.00
2022-10-23T08:49:46.219Z,2092.00
2022-10-23T08:50:46.170Z,1984.00
2022-10-23T08:51:46.180Z,1928.00
2022-10-23T08:52:46.418Z,1904.00
2022-10-23T08:53:46.150Z,1880.00
2022-10-23T08:54:46.141Z,1844.00
2022-10-23T08:55:46.131Z,1800.00
2022-10-23T08:56:46.112Z,1772.00
2022-10-23T08:57:46.092Z,1784.00
2022-10-23T08:58:46.213Z,1820.00
2022-10-23T08:59:46.100Z,1864.00
2022-10-23T09:00:46.160Z,1856.00
2022-10-23T09:01:46.212Z,1856.00
2022-10-23T09:02:46.375Z,1896.00
2022-10-23T09:03:46.032Z,1924.00
2022-10-23T09:04:46.013Z,1972.00
2022-10-23T09:05:46.022Z,2040.00
2022-10-23T09:06:46.011Z,2092.00
2022-10-23T09:07:46.250Z,2144.00
2022-10-23T09:08:45.997Z,2196.00
2022-10-23T09:09:45.995Z,2232.00
2022-10-23T09:10:48.098Z,2284.00
2022-10-23T09:11:45.963Z,2324.00
2022-10-23T09:12:45.955Z,2360.00
2022-10-23T09:13:46.033Z,2376.00
2022-10-23T09:14:45.944Z,2412.00
2022-10-23T09:15:45.894Z,2436.00
2022-10-23T09:16:45.893Z,2448.00
2022-10-23T09:17:46.275Z,2460.00
2022-10-23T09:18:45.886Z,2488.00
2022-10-23T09:19:45.855Z,2500.00
2022-10-23T09:20:45.845Z,2520.00
2022-10-23T09:21:45.863Z,2548.00
2022-10-23T09:22:45.868Z,2576.00
2022-10-23T09:23:45.816Z,2588.00
2022-10-23T09:24:47.005Z,2604.00
2022-10-23T09:25:45.797Z,2636.00
2022-10-23T09:26:45.778Z,2664.00
2022-10-23T09:27:45.865Z,2704.00
2022-10-23T09:28:45.767Z,2756.00
2022-10-23T09:29:45.767Z,2804.00
2022-10-23T09:30:45.756Z,2840.00
2022-10-23T09:31:45.748Z,2856.00
2022-10-23T09:32:45.735Z,2876.00
2022-10-23T09:33:45.718Z,2928.00
2022-10-23T09:34:45.708Z,2964.00
2022-10-23T09:35:45.687Z,3012.00
2022-10-23T09:36:45.718Z,3048.00
2022-10-23T09:37:45.935Z,3068.00
2022-10-23T09:38:45.660Z,3144.00
2022-10-23T09:39:45.650Z,3204.00
2022-10-23T09:40:45.656Z,3272.00
2022-10-23T09:41:45.647Z,3388.00
2022-10-23T09:42:45.622Z,3452.00
2022-10-23T09:43:45.600Z,3528.00
2022-10-23T09:44:45.639Z,3556.00
2022-10-23T09:45:45.599Z,3572.00
2022-10-23T09:46:45.628Z,3560.00
2022-10-23T09:47:45.749Z,3548.00
2022-10-23T09:48:45.552Z,3544.00
2022-10-23T09:49:45.543Z,3564.00
2022-10-23T09:50:45.532Z,3564.00
2022-10-23T09:51:45.566Z,3624.00
2022-10-23T09:52:45.513Z,3680.00
2022-10-23T09:53:45.502Z,3752.00
2022-10-23T09:54:45.663Z,3836.00
2022-10-23T09:55:45.476Z,3888.00
2022-10-23T09:56:45.497Z,3972.00
2022-10-23T09:57:45.932Z,4104.00
2022-10-23T09:58:45.455Z,4244.00
2022-10-23T09:59:45.445Z,4360.00
2022-10-23T10:00:45.514Z,4416.00
2022-10-23T10:01:45.543Z,4476.00
2022-10-23T10:02:45.405Z,4548.00
2022-10-23T10:03:45.416Z,4580.00
2022-10-23T10:04:45.396Z,4620.00
2022-10-23T10:05:45.384Z,4652.00
2022-10-23T10:06:45.382Z,4696.00
2022-10-23T10:07:45.575Z,4768.00
2022-10-23T10:08:45.352Z,4864.00
2022-10-23T10:09:45.326Z,4936.00
2022-10-23T10:10:45.327Z,4988.00
2022-10-23T10:11:45.315Z,5060.00
2022-10-23T10:12:45.309Z,5164.00
2022-10-23T10:13:45.285Z,5252.00
2022-10-23T10:14:45.308Z,5448.00
2022-10-23T10:15:45.269Z,5520.00
2022-10-23T10:16:45.249Z,5604.00
2022-10-23T10:17:45.525Z,5772.00
2022-10-23T10:18:45.242Z,5884.00
2022-10-23T10:19:45.240Z,5920.00
2022-10-23T10:20:45.228Z,6024.00
2022-10-23T10:21:45.202Z,6012.00
2022-10-23T10:22:45.176Z,5992.00
2022-10-23T10:23:45.178Z,5988.00
2022-10-23T10:24:45.267Z,5956.00
2022-10-23T10:25:49.862Z,6008.00
2022-10-23T10:26:46.138Z,6108.00
2022-10-23T10:27:45.482Z,6112.00
2022-10-23T10:28:45.121Z,6224.00
2022-10-23T10:29:45.131Z,6356.00
2022-10-23T10:30:45.099Z,6460.00
2022-10-23T10:31:48.268Z,6528.00
2022-10-23T10:32:46.082Z,6656.00
2022-10-23T10:33:45.072Z,6756.00
2022-10-23T10:34:45.072Z,6888.00
2022-10-23T10:35:45.073Z,7172.00
2022-10-23T10:36:45.034Z,7412.00
2022-10-23T10:37:47.347Z,7576.00
2022-10-23T10:38:45.011Z,7420.00
2022-10-23T10:39:45.053Z,7072.00
2022-10-23T10:40:44.994Z,6912.00
2022-10-23T10:41:45.013Z,6936.00
2022-10-23T10:42:44.974Z,6852.00
2022-10-23T10:43:44.994Z,7000.00
2022-10-23T10:44:44.937Z,7204.00
2022-10-23T10:45:44.936Z,7420.00
2022-10-23T10:46:44.945Z,7320.00
2022-10-23T10:47:45.208Z,7280.00
2022-10-23T10:48:44.913Z,7172.00
2022-10-23T10:49:44.927Z,6980.00
2022-10-23T10:50:44.893Z,6872.00
2022-10-23T10:51:44.939Z,6704.00
2022-10-23T10:52:48.295Z,6612.00
2022-10-23T10:53:44.868Z,6544.00
2022-10-23T10:54:44.866Z,6456.00
2022-10-23T10:55:44.848Z,6368.00
2022-10-23T10:56:44.818Z,6368.00
2022-10-23T10:57:45.188Z,6452.00
2022-10-23T10:58:44.822Z,6568.00
2022-10-23T10:59:44.790Z,6764.00
2022-10-23T11:00:44.877Z,6936.00
2022-10-23T11:01:44.944Z,7048.00
2022-10-23T11:02:44.760Z,7156.00
2022-10-23T11:03:44.771Z,7308.00
2022-10-23T11:04:44.742Z,7464.00
2022-10-23T11:05:44.721Z,7612.00
2022-10-23T11:06:44.722Z,7608.00
2022-10-23T11:07:44.964Z,7600.00
2022-10-23T11:08:57.442Z,7624.00
2022-10-23T11:09:45.739Z,7616.00
2022-10-23T11:10:44.683Z,7584.00
2022-10-23T11:11:44.673Z,7540.00
2022-10-23T11:12:44.672Z,7492.00
2022-10-23T11:13:44.664Z,7472.00
2022-10-23T11:14:44.645Z,7456.00
2022-10-23T11:15:44.658Z,7408.00
2022-10-23T11:16:44.625Z,7096.00
2022-10-23T11:17:45.105Z,6324.00
2022-10-23T11:18:44.626Z,5780.00
2022-10-23T11:19:44.574Z,5972.00
2022-10-23T11:20:44.590Z,6432.00
2022-10-23T11:21:44.556Z,6816.00
2022-10-23T11:22:44.950Z,6828.00
2022-10-23T11:23:44.549Z,6692.00
2022-10-23T11:24:48.159Z,6448.00
2022-10-23T11:25:45.517Z,6232.00
2022-10-23T11:26:44.519Z,6012.00
2022-10-23T11:27:44.914Z,5844.00
2022-10-23T11:28:44.488Z,5684.00
2022-10-23T11:29:44.479Z,5356.00
2022-10-23T11:30:44.466Z,5128.00
2022-10-23T11:31:44.469Z,4976.00
2022-10-23T11:32:44.460Z,4780.00
2022-10-23T11:33:44.820Z,4420.00
2022-10-23T11:34:44.409Z,4140.00
2022-10-23T11:35:44.420Z,4188.00
2022-10-23T11:36:44.410Z,4468.00
2022-10-23T11:37:44.756Z,4624.00
2022-10-23T11:38:44.381Z,4524.00
2022-10-23T11:39:44.381Z,4528.00
2022-10-23T11:40:44.369Z,4640.00
2022-10-23T11:41:44.369Z,4820.00
2022-10-23T11:42:44.642Z,4996.00
2022-10-23T11:43:44.333Z,5056.00
2022-10-23T11:44:44.322Z,5020.00
2022-10-23T11:45:44.304Z,4964.00
2022-10-23T11:46:44.314Z,4892.00
2022-10-23T11:47:44.321Z,4856.00
2022-10-23T11:48:44.294Z,4856.00
2022-10-23T11:49:44.263Z,4880.00
2022-10-23T11:50:44.255Z,4932.00
2022-10-23T11:51:44.264Z,5092.00
2022-10-23T11:52:50.645Z,5232.00
2022-10-23T11:53:45.206Z,5332.00
2022-10-23T11:54:44.224Z,5488.00
2022-10-23T11:55:44.187Z,5620.00
2022-10-23T11:56:44.205Z,5648.00
2022-10-23T11:57:44.174Z,5748.00
2022-10-23T11:58:44.190Z,6136.00
2022-10-23T11:59:44.146Z,7212.00
2022-10-23T12:00:44.137Z,8488.00
2022-10-23T12:01:44.213Z,9192.00
2022-10-23T12:02:44.438Z,9556.00
2022-10-23T12:03:44.118Z,9936.00
2022-10-23T12:04:44.118Z,9964.00
2022-10-23T12:05:44.106Z,9848.00
2022-10-23T12:06:44.090Z,9364.00
2022-10-23T12:07:44.296Z,9844.00
2022-10-23T12:08:44.080Z,12088.00
2022-10-23T12:09:44.099Z,10944.00
2022-10-23T12:10:44.053Z,10572.00
2022-10-23T12:11:44.021Z,10324.00
2022-10-23T12:12:44.021Z,9784.00
2022-10-23T12:13:44.011Z,9536.00
2022-10-23T12:14:44.012Z,8844.00
2022-10-23T12:15:43.992Z,8948.00
2022-10-23T12:16:44.002Z,8684.00
2022-10-23T12:17:44.314Z,8264.00
2022-10-23T12:18:43.942Z,8216.00
2022-10-23T12:19:43.982Z,7792.00
2022-10-23T12:20:43.965Z,7952.00
2022-10-23T12:21:43.914Z,7764.00
2022-10-23T12:22:43.924Z,7688.00
2022-10-23T12:23:47.247Z,7584.00
2022-10-23T12:24:44.008Z,7652.00
2022-10-23T12:25:43.975Z,7732.00
2022-10-23T12:26:43.887Z,9572.00
2022-10-23T12:27:44.120Z,12076.00
2022-10-23T12:28:43.858Z,9592.00
2022-10-23T12:29:43.865Z,9208.00
2022-10-23T12:30:43.871Z,9196.00
2022-10-23T12:31:45.657Z,8424.00
2022-10-23T12:32:44.140Z,8376.00
2022-10-23T12:33:43.819Z,8372.00
2022-10-23T12:34:43.789Z,9048.00
2022-10-23T12:35:43.779Z,9508.00
2022-10-23T12:36:43.759Z,10164.00
2022-10-23T12:37:43.812Z,11360.00
2022-10-23T12:38:43.771Z,11312.00
2022-10-23T12:39:43.740Z,14172.00
2022-10-23T12:40:43.731Z,14120.00